Time;durP1;ratioP1;P1;durP2;ratioP2;P2;SDS_P1;SDS_P2;PMS_P1;PMS_P2;Temp;Humidity;BMP_temperature;BMP_pressure;BME280_temperature;BME280_humidity;BME280_pressure;Samples;Min_cycle;Max_cycle;Signal;HPM_P1;HPM_P2
2021/04/06 00:00:22;;;;;;;7.50;6.13;;;0.10;99.90;;;0.97;95.01;97638.66;5163699;28;20223;-58
2021/04/06 00:02:57;;;;;;;9.93;6.67;;;0.10;99.90;;;0.93;94.91;97641.66;5163604;28;20202;-59
2021/04/06 00:05:31;;;;;;;6.70;5.93;;;0.00;99.90;;;0.95;95.89;97642.69;5163934;28;20198;-59
2021/04/06 00:08:06;;;;;;;6.70;5.93;;;0.00;99.90;;;0.87;95.43;97642.88;5164199;28;20200;-57
2021/04/06 00:10:45;;;;;;;6.47;5.80;;;0.00;99.90;;;0.82;95.43;97644.06;5163672;28;20240;-57
2021/04/06 00:13:18;;;;;;;6.07;5.43;;;-0.10;99.90;;;0.82;95.64;97643.19;5165851;28;20230;-58
2021/04/06 00:15:51;;;;;;;6.10;5.33;;;-0.10;99.90;;;0.70;95.08;97634.53;5167420;28;20206;-56
2021/04/06 00:18:24;;;;;;;6.33;5.70;;;-0.20;99.90;;;0.70;95.57;97632.91;5167763;28;20627;-58
2021/04/06 00:20:59;;;;;;;6.93;5.40;;;-0.20;99.90;;;0.68;95.44;97630.25;5167898;28;20309;-58
2021/04/06 00:23:33;;;;;;;5.87;5.27;;;-0.20;99.90;;;0.70;95.93;97632.91;5167762;28;20227;-60
2021/04/06 00:26:07;;;;;;;5.50;5.00;;;-0.20;99.90;;;0.70;95.59;97629.50;5167829;28;20256;-56
2021/04/06 00:28:41;;;;;;;5.67;5.07;;;-0.20;99.90;;;0.65;94.62;97629.97;5167311;28;20289;-58
2021/04/06 00:31:15;;;;;;;5.87;5.37;;;-0.30;99.90;;;0.62;95.30;97633.84;5167944;28;20207;-58
2021/04/06 00:33:51;;;;;;;5.37;4.97;;;-0.30;99.90;;;0.56;94.98;97633.28;5167245;28;20225;-58
2021/04/06 00:36:26;;;;;;;5.60;4.80;;;-0.40;99.90;;;0.41;93.56;97637.81;5167964;28;20203;-59
2021/04/06 00:39:00;;;;;;;5.47;4.77;;;-0.50;99.90;;;0.40;94.21;97631.91;5167147;28;20205;-58
2021/04/06 00:41:32;;;;;;;5.53;4.60;;;-0.50;99.90;;;0.37;94.15;97631.63;5167229;28;20322;-59
2021/04/06 00:44:13;;;;;;;5.50;4.53;;;-0.50;99.90;;;0.35;94.92;97637.25;5167680;28;20273;-58
2021/04/06 00:46:46;;;;;;;5.20;4.70;;;-0.50;99.90;;;0.33;94.35;97624.53;5167004;28;20195;-57
2021/04/06 00:49:18;;;;;;;5.30;4.77;;;-0.50;99.90;;;0.33;94.69;97629.53;5166905;28;20644;-58
2021/04/06 00:51:51;;;;;;;5.73;5.30;;;-0.50;99.90;;;0.39;95.10;97629.22;5167113;28;20219;-57
2021/04/06 00:54:25;;;;;;;5.70;5.20;;;-0.50;99.90;;;0.42;94.87;97632.91;5167539;28;20203;-57
2021/04/06 00:56:59;;;;;;;5.73;5.23;;;-0.40;99.90;;;0.47;95.77;97633.34;5166793;28;20199;-58
2021/04/06 00:59:32;;;;;;;5.67;5.17;;;-0.40;99.90;;;0.47;94.68;97637.47;5166847;28;20302;-58
2021/04/06 01:02:08;;;;;;;6.03;5.47;;;-0.40;99.90;;;0.54;96.08;97634.75;5167503;28;20719;-60
2021/04/06 01:04:40;;;;;;;5.90;5.40;;;-0.40;99.90;;;0.59;95.67;97629.41;5166992;28;20215;-59
2021/04/06 01:07:14;;;;;;;5.17;4.70;;;-0.30;99.90;;;0.62;95.57;97634.72;5166654;28;20647;-59
2021/04/06 01:09:49;;;;;;;5.40;4.90;;;-0.30;99.90;;;0.75;95.09;97631.72;5166885;28;20266;-58
2021/04/06 01:12:23;;;;;;;5.70;5.20;;;-0.30;99.90;;;0.85;94.01;97639.31;5166704;28;20767;-58
2021/04/06 01:14:57;;;;;;;6.13;5.20;;;-0.20;99.90;;;0.83;93.58;97635.81;5166776;28;20689;-59
2021/04/06 01:17:33;;;;;;;5.37;4.87;;;-0.20;99.90;;;0.81;93.48;97642.31;5166450;28;20659;-58
2021/04/06 01:20:08;;;;;;;5.00;4.60;;;-0.20;99.90;;;0.76;93.49;97642.66;5147024;28;20317;-57
2021/04/06 01:22:42;;;;;;;5.13;4.63;;;-0.20;99.90;;;0.62;91.75;97649.81;5163487;28;20195;-58
2021/04/06 01:25:22;;;;;;;6.07;5.43;;;-0.40;99.90;;;0.67;92.88;97648.59;5166008;28;20223;-59
2021/04/06 01:28:04;;;;;;;5.93;5.53;;;-0.30;99.90;;;0.70;93.74;97653.03;5166717;28;20207;-59
2021/04/06 01:30:46;;;;;;;6.53;5.80;;;-0.20;99.90;;;0.70;93.65;97648.00;5166061;28;20758;-57
2021/04/06 01:33:22;;;;;;;6.03;5.40;;;-0.20;99.90;;;0.74;94.20;97647.53;5166799;28;20219;-57
2021/04/06 01:35:58;;;;;;;5.93;5.30;;;-0.10;99.90;;;0.83;94.18;97650.91;5166956;28;20667;-57
2021/04/06 01:38:30;;;;;;;6.10;5.60;;;0.00;99.90;;;0.87;95.01;97642.88;5166936;28;20226;-58
2021/04/06 01:41:04;;;;;;;6.17;5.53;;;0.00;99.90;;;0.90;94.54;97635.59;5166532;28;20314;-58
2021/04/06 01:43:40;;;;;;;6.13;5.50;;;0.00;99.90;;;0.95;94.84;97630.09;5166181;28;20789;-58
2021/04/06 01:46:16;;;;;;;6.70;6.03;;;0.00;99.90;;;0.90;93.89;97625.53;5166125;28;20195;-58
2021/04/06 01:48:48;;;;;;;5.93;4.87;;;0.00;99.90;;;0.84;93.91;97616.56;5165741;28;20317;-58
2021/04/06 01:51:22;;;;;;;5.50;5.00;;;-0.10;99.90;;;0.73;92.98;97623.13;5210540;22;20247;-58
2021/04/06 01:53:54;;;;;;;4.90;4.47;;;-0.20;99.90;;;0.69;93.63;97611.03;5202466;28;20277;-62
2021/04/06 01:56:32;;;;;;;5.23;4.73;;;-0.20;99.90;;;0.71;93.96;97608.63;5201242;28;20654;-59
2021/04/06 01:59:08;;;;;;;5.03;4.53;;;-0.20;99.90;;;0.75;94.42;97610.72;5206822;28;20296;-59
2021/04/06 02:01:42;;;;;;;6.73;4.97;;;-0.20;99.90;;;0.70;94.25;97607.75;5199011;28;20328;-56
2021/04/06 02:04:20;;;;;;;4.63;4.23;;;-0.20;99.90;;;0.74;93.48;97607.28;5191557;28;20726;-59
2021/04/06 02:06:53;;;;;;;5.33;4.83;;;-0.20;99.90;;;0.77;93.84;97594.97;5187662;28;20198;-59
2021/04/06 02:09:26;;;;;;;5.40;4.13;;;-0.20;99.90;;;0.81;92.25;97602.06;5186605;28;20666;-60
2021/04/06 02:12:00;;;;;;;6.17;4.47;;;-0.30;99.90;;;0.72;92.03;97593.69;5193026;28;20190;-57
2021/04/06 02:14:32;;;;;;;4.93;4.50;;;-0.30;99.90;;;0.62;92.15;97589.47;5187876;28;20640;-59
2021/04/06 02:17:06;;;;;;;5.70;4.63;;;-0.30;99.90;;;0.55;91.26;97591.31;5199958;28;20195;-59
2021/04/06 02:19:40;;;;;;;5.33;4.80;;;-0.40;99.90;;;0.61;91.36;97586.81;5203629;28;20197;-59
2021/04/06 02:22:15;;;;;;;4.77;4.20;;;-0.50;99.90;;;0.61;90.64;97584.31;5200572;28;20281;-59
2021/04/06 02:24:49;;;;;;;7.00;4.27;;;-0.50;99.90;;;0.54;88.38;97587.88;5204066;28;20193;-59
2021/04/06 02:27:26;;;;;;;5.03;4.63;;;-0.60;99.90;;;0.46;89.61;97576.25;5204311;28;20284;-61
2021/04/06 02:30:01;;;;;;;5.67;4.10;;;-0.60;99.90;;;0.41;89.42;97583.38;5188407;28;20728;-59
2021/04/06 02:32:34;;;;;;;5.23;4.37;;;-0.70;99.90;;;0.36;90.63;97579.56;5192437;28;20221;-57
2021/04/06 02:35:10;;;;;;;4.73;4.33;;;-0.60;99.90;;;0.26;90.95;97576.97;5205651;28;20301;-55
2021/04/06 02:37:44;;;;;;;5.00;4.60;;;-0.60;99.90;;;0.22;91.20;97579.91;5204965;28;20193;-56
2021/04/06 02:40:19;;;;;;;6.17;4.30;;;-0.60;99.90;;;0.23;92.92;97576.69;5187711;28;20218;-56
2021/04/06 02:42:57;;;;;;;5.63;4.50;;;-0.60;99.90;;;0.33;91.92;97575.88;5191239;28;20226;-58
2021/04/06 02:45:30;;;;;;;4.90;4.30;;;-0.60;99.90;;;0.36;90.68;97578.69;5190748;28;20662;-56
2021/04/06 02:48:05;;;;;;;5.37;4.70;;;-0.60;99.90;;;0.38;88.30;97570.53;5186194;28;20285;-58
2021/04/06 02:50:40;;;;;;;5.80;5.23;;;-0.60;99.90;;;0.35;89.58;97577.81;5202443;28;20229;-56
2021/04/06 02:53:16;;;;;;;6.63;4.57;;;-0.60;99.90;;;0.36;88.31;97579.56;5199321;28;20216;-58
2021/04/06 02:55:49;;;;;;;4.33;4.03;;;-0.60;99.90;;;0.48;88.32;97573.88;5186334;28;20228;-59
2021/04/06 02:58:22;;;;;;;5.87;4.67;;;-0.50;99.90;;;0.42;89.01;97572.56;5190605;28;20649;-59
2021/04/06 03:01:09;;;;;;;5.87;4.60;;;-0.50;99.90;;;0.43;88.85;97574.34;5188643;28;20220;-58
2021/04/06 03:03:41;;;;;;;4.97;4.57;;;-0.50;99.90;;;0.44;89.14;97567.69;5194056;28;20206;-60
2021/04/06 03:06:15;;;;;;;5.60;5.03;;;-0.50;99.90;;;0.41;88.05;97572.44;5198289;28;20225;-59
2021/04/06 03:08:47;;;;;;;6.50;4.90;;;-0.50;99.90;;;0.48;88.95;97568.84;5184817;28;20206;-59
2021/04/06 03:11:19;;;;;;;6.47;4.77;;;-0.40;99.90;;;0.59;89.36;97551.47;5185823;28;20554;-58
2021/04/06 03:13:52;;;;;;;6.27;4.43;;;-0.40;99.90;;;0.61;87.46;97551.63;5195203;28;20668;-58
2021/04/06 03:16:24;;;;;;;6.90;4.50;;;-0.40;99.90;;;0.59;87.19;97559.00;5189194;28;20201;-57
2021/04/06 03:19:03;;;;;;;6.97;4.77;;;-0.30;99.90;;;0.50;86.80;97557.31;5196442;28;20642;-59
2021/04/06 03:21:36;;;;;;;7.10;4.77;;;-0.40;99.90;;;0.52;88.67;97560.84;5194855;28;20304;-58
2021/04/06 03:24:10;;;;;;;8.13;5.20;;;-0.30;99.90;;;0.54;89.69;97559.34;5187191;28;20563;-56
2021/04/06 03:26:42;;;;;;;7.10;4.60;;;-0.30;99.90;;;0.57;88.28;97554.59;5184739;28;20208;-57
2021/04/06 03:29:17;;;;;;;4.97;4.37;;;-0.20;99.90;;;0.63;88.61;97553.53;5188627;28;20293;-58
2021/04/06 03:31:49;;;;;;;5.47;4.97;;;-0.20;99.90;;;0.70;88.90;97549.91;5193823;28;20252;-60
2021/04/06 03:34:22;;;;;;;4.57;4.20;;;-0.10;99.90;;;0.74;89.32;97549.44;5203995;28;20309;-60
2021/04/06 03:36:54;;;;;;;5.27;4.87;;;-0.10;99.90;;;0.71;88.12;97544.13;5191251;28;20198;-61
2021/04/06 03:39:27;;;;;;;5.70;4.60;;;0.00;99.90;;;0.64;86.60;97546.84;5191314;28;20300;-58
2021/04/06 03:42:00;;;;;;;4.97;4.57;;;-0.10;99.90;;;0.76;87.77;97544.56;5194041;28;20289;-57
2021/04/06 03:44:33;;;;;;;4.73;4.33;;;-0.10;99.90;;;0.76;86.26;97545.44;5205399;28;20684;-55
2021/04/06 03:47:05;;;;;;;5.20;4.70;;;-0.10;99.90;;;0.76;86.31;97547.06;5201997;28;20233;-58
2021/04/06 03:49:47;;;;;;;4.03;3.77;;;0.00;99.90;;;0.87;84.56;97544.75;5187580;28;20212;-57
2021/04/06 03:52:19;;;;;;;5.73;4.30;;;0.00;99.90;;;0.83;83.51;97547.75;5191973;28;20226;-59
2021/04/06 03:54:51;;;;;;;5.27;4.23;;;0.00;99.90;;;0.85;83.74;97551.28;5192512;28;20652;-59
2021/04/06 03:57:29;;;;;;;6.83;4.17;;;-0.10;99.90;;;1.01;84.24;97555.16;5203634;28;20627;-60
2021/04/06 04:00:06;;;;;;;6.73;4.20;;;0.00;99.90;;;0.88;82.59;97559.09;5202227;28;20304;-56
2021/04/06 04:02:38;;;;;;;5.53;4.63;;;0.00;99.90;;;0.88;82.85;97550.66;5200398;28;20212;-56
2021/04/06 04:05:12;;;;;;;5.70;4.87;;;0.00;99.90;;;0.95;82.62;97549.59;5185856;28;20290;-59
2021/04/06 04:07:44;;;;;;;7.03;5.13;;;0.00;99.90;;;1.03;83.51;97552.03;5184324;28;20199;-59
2021/04/06 04:10:16;;;;;;;6.87;4.67;;;0.00;99.90;;;1.12;83.50;97551.97;5192641;28;20304;-59
2021/04/06 04:12:49;;;;;;;5.90;5.10;;;0.00;99.90;;;1.01;82.69;97551.00;5204290;28;20221;-60
2021/04/06 04:15:22;;;;;;;6.53;5.30;;;0.00;99.90;;;0.97;82.58;97558.16;5164288;28;20290;-59
2021/04/06 04:17:54;;;;;;;5.83;4.47;;;0.00;99.90;;;0.89;82.43;97555.84;5192225;28;20294;-59
2021/04/06 04:20:26;;;;;;;6.20;5.37;;;0.00;99.90;;;0.92;82.22;97554.31;5188381;28;20316;-59
2021/04/06 04:22:59;;;;;;;5.23;4.83;;;0.00;99.90;;;0.87;80.17;97557.34;5191861;28;20253;-58
2021/04/06 04:25:31;;;;;;;4.83;4.43;;;-0.10;99.90;;;0.86;80.65;97555.56;5190461;28;20730;-58
2021/04/06 04:28:03;;;;;;;5.77;4.70;;;-0.10;99.90;;;0.81;81.44;97566.84;5183902;28;20230;-56
2021/04/06 04:30:38;;;;;;;7.23;4.87;;;0.00;99.90;;;0.87;81.65;97572.44;5194191;28;20229;-58
2021/04/06 04:33:11;;;;;;;5.43;4.97;;;-0.10;99.90;;;0.83;79.95;97569.50;5201396;28;20214;-60
2021/04/06 04:35:43;;;;;;;6.13;5.03;;;-0.10;99.90;;;0.88;80.14;97569.16;5191245;28;20566;-58
2021/04/06 04:38:16;;;;;;;5.83;5.20;;;-0.10;99.90;;;1.03;80.01;97558.69;5198510;28;20191;-58
2021/04/06 04:40:48;;;;;;;6.43;4.60;;;0.00;99.90;;;1.06;79.21;97554.81;5198316;28;20308;-59
2021/04/06 04:43:20;;;;;;;5.10;4.67;;;-0.10;99.90;;;1.04;79.14;97553.78;5188757;28;20457;-58
2021/04/06 04:45:53;;;;;;;6.93;5.27;;;0.00;99.90;;;0.98;78.32;97554.91;5184210;28;20230;-58
2021/04/06 04:48:25;;;;;;;5.70;5.07;;;-0.10;99.90;;;0.88;79.30;97554.06;5193173;28;20191;-59
2021/04/06 04:50:58;;;;;;;5.93;5.20;;;-0.10;99.90;;;0.83;78.26;97549.38;5186175;28;20321;-59
2021/04/06 04:53:30;;;;;;;5.20;4.80;;;0.00;99.90;;;1.04;79.17;97545.38;5192675;28;20218;-58
2021/04/06 04:56:02;;;;;;;7.43;5.10;;;0.00;99.90;;;1.06;78.60;97542.25;5187515;28;20201;-58
2021/04/06 04:58:34;;;;;;;7.33;4.90;;;0.00;99.90;;;1.05;77.33;97547.13;5185716;28;20678;-57
2021/04/06 05:01:07;;;;;;;5.87;5.17;;;0.00;99.90;;;1.07;76.68;97545.63;5188335;28;20224;-58
2021/04/06 05:03:40;;;;;;;8.73;5.37;;;0.00;99.90;;;0.92;77.61;97551.81;5192050;28;20199;-58
2021/04/06 05:06:12;;;;;;;8.60;4.97;;;0.00;99.90;;;0.96;78.62;97551.34;5196134;28;20208;-59
2021/04/06 05:08:44;;;;;;;7.33;4.97;;;0.00;99.90;;;0.97;78.12;97548.97;5187256;28;20240;-58
2021/04/06 05:11:16;;;;;;;8.00;5.57;;;0.00;99.90;;;1.05;77.92;97547.13;5187780;28;20268;-58
2021/04/06 05:13:50;;;;;;;7.57;5.27;;;0.00;99.90;;;1.18;76.69;97549.97;5188323;28;20317;-59
2021/04/06 05:16:23;;;;;;;7.17;5.10;;;0.10;99.90;;;1.13;76.01;97547.06;5197492;28;20200;-58
2021/04/06 05:18:55;;;;;;;5.37;4.97;;;0.10;99.90;;;1.07;76.54;97545.63;5189299;28;20207;-58
2021/04/06 05:21:27;;;;;;;5.73;5.20;;;0.10;99.90;;;1.16;77.28;97541.41;5187859;28;20225;-57
2021/04/06 05:23:59;;;;;;;5.57;5.00;;;0.20;99.90;;;1.04;75.12;97547.88;5195986;28;20190;-55
2021/04/06 05:26:31;;;;;;;4.73;4.30;;;0.10;99.90;;;1.00;75.91;97549.25;5195050;28;20576;-58
2021/04/06 05:29:03;;;;;;;6.97;5.23;;;0.10;99.90;;;1.00;76.25;97550.88;5186340;28;20282;-56
2021/04/06 05:31:36;;;;;;;8.27;5.67;;;0.10;99.90;;;1.12;77.29;97550.31;5189453;28;20218;-55
2021/04/06 05:34:08;;;;;;;5.93;5.20;;;0.10;99.90;;;1.07;75.89;97556.59;5198233;28;20265;-57
2021/04/06 05:36:41;;;;;;;7.57;5.33;;;0.20;99.90;;;1.16;77.03;97555.63;5187931;28;20249;-59
2021/04/06 05:39:13;;;;;;;6.57;4.70;;;0.20;99.90;;;1.12;76.34;97557.00;5190822;28;20294;-60
2021/04/06 05:41:47;;;;;;;6.57;5.13;;;0.20;99.90;;;1.13;77.29;97556.25;5203824;28;20222;-58
2021/04/06 05:44:19;;;;;;;5.30;4.50;;;0.20;99.90;;;1.12;77.97;97564.56;5189207;28;20294;-58
2021/04/06 05:47:00;;;;;;;7.13;5.00;;;0.20;99.90;;;1.16;76.21;97565.69;5193138;28;20210;-59
2021/04/06 05:49:33;;;;;;;5.93;5.10;;;0.20;99.90;;;1.17;77.49;97563.28;5201750;28;20195;-59
2021/04/06 05:52:05;;;;;;;6.97;5.37;;;0.20;99.90;;;1.22;78.23;97577.19;5194274;28;20285;-57
2021/04/06 05:54:38;;;;;;;6.70;5.20;;;0.30;99.90;;;1.26;77.76;97574.19;5206811;28;20228;-57
2021/04/06 05:57:10;;;;;;;5.57;5.17;;;0.30;99.90;;;1.30;77.92;97570.31;5201831;28;20225;-55
2021/04/06 05:59:42;;;;;;;6.97;5.30;;;0.30;99.90;;;1.31;77.56;97577.09;5204838;28;20558;-59
2021/04/06 06:02:15;;;;;;;5.30;4.70;;;0.30;99.90;;;1.24;77.94;97575.69;5202975;28;20296;-58
2021/04/06 06:04:47;;;;;;;6.87;5.27;;;0.30;99.90;;;1.30;78.90;97560.25;5187191;28;20281;-55
2021/04/06 06:07:19;;;;;;;9.00;5.53;;;0.30;99.90;;;1.50;75.66;97564.50;5190238;28;20287;-58
2021/04/06 06:09:52;;;;;;;6.20;5.43;;;0.40;99.90;;;1.31;76.60;97562.00;5189766;28;20604;-58
2021/04/06 06:12:24;;;;;;;6.83;5.17;;;0.40;99.90;;;1.45;77.22;97570.75;5202086;28;20197;-54
2021/04/06 06:14:56;;;;;;;6.47;4.90;;;0.40;99.90;;;1.45;77.96;97560.69;5192586;28;20201;-57
2021/04/06 06:17:29;;;;;;;6.80;5.13;;;0.40;99.90;;;1.38;77.42;97561.78;5197093;28;20194;-57
2021/04/06 06:20:02;;;;;;;6.03;5.03;;;0.40;99.90;;;1.55;79.24;97565.78;5194803;28;20333;-54
2021/04/06 06:22:36;;;;;;;6.13;4.80;;;0.50;99.90;;;1.57;78.04;97559.22;5193192;28;20280;-57
2021/04/06 06:25:11;;;;;;;7.53;5.17;;;0.60;99.90;;;1.67;77.50;97563.44;5187293;28;20669;-57
2021/04/06 06:27:45;;;;;;;6.13;5.30;;;0.60;99.90;;;1.68;78.28;97568.56;5182755;28;20304;-59
2021/04/06 06:30:27;;;;;;;6.60;5.37;;;0.60;99.90;;;1.82;77.15;97563.84;5166280;28;20219;-58
2021/04/06 06:33:18;;;;;;;8.50;5.70;;;0.60;99.90;;;1.84;78.35;97567.41;5164206;28;20234;-57
2021/04/06 06:35:53;;;;;;;6.40;5.63;;;0.60;99.90;;;1.82;77.53;97562.22;5168066;28;20648;-55
2021/04/06 06:38:34;;;;;;;5.97;4.67;;;0.60;99.90;;;1.97;76.55;97555.94;5177611;28;20626;-55
2021/04/06 06:41:14;;;;;;;6.53;5.57;;;0.60;99.90;;;1.84;77.79;97558.19;5180158;28;20387;-54
2021/04/06 06:43:50;;;;;;;9.30;6.40;;;0.70;99.90;;;2.00;77.70;97560.38;5183183;28;20203;-56
2021/04/06 06:46:28;;;;;;;7.00;5.17;;;0.70;99.90;;;1.75;77.29;97567.50;5184245;28;20716;-56
2021/04/06 06:49:03;;;;;;;7.57;5.80;;;0.70;99.90;;;1.93;76.44;97555.56;5193875;28;20243;-59
2021/04/06 06:51:38;;;;;;;6.20;5.67;;;0.70;99.90;;;1.99;76.75;97563.66;5202203;28;20231;-56
2021/04/06 06:54:10;;;;;;;10.87;6.23;;;0.70;99.90;;;1.92;76.98;97563.91;5201546;28;20574;-57
2021/04/06 06:56:43;;;;;;;8.80;5.67;;;0.80;99.90;;;1.95;77.54;97564.16;5193251;28;20202;-55
2021/04/06 06:59:15;;;;;;;7.60;6.40;;;0.90;99.90;;;1.98;77.44;97562.78;5201978;28;20204;-55
2021/04/06 07:01:48;;;;;;;6.53;5.90;;;0.80;99.90;;;2.02;76.74;97568.94;5203808;28;20254;-57
2021/04/06 07:04:29;;;;;;;10.87;6.37;;;0.80;99.90;;;2.01;77.81;97572.22;5202714;28;20244;-56
2021/04/06 07:07:01;;;;;;;6.67;6.03;;;0.90;99.90;;;2.04;77.08;97569.97;5183285;28;20246;-58
2021/04/06 07:09:34;;;;;;;8.13;6.63;;;0.80;99.90;;;1.93;77.52;97578.25;5183216;28;20202;-57
2021/04/06 07:12:08;;;;;;;11.50;6.47;;;0.80;99.90;;;1.93;77.12;97568.16;5192718;28;20230;-58
2021/04/06 07:14:42;;;;;;;7.10;6.40;;;0.80;99.90;;;1.99;77.40;97571.22;5203830;28;20308;-55
2021/04/06 07:17:15;;;;;;;6.77;5.97;;;0.80;99.90;;;1.93;77.99;97569.06;5201805;28;20203;-58
2021/04/06 07:19:48;;;;;;;10.80;6.07;;;0.80;99.90;;;1.96;77.42;97565.91;5203389;28;20228;-58
2021/04/06 07:22:21;;;;;;;9.77;5.77;;;0.80;99.90;;;2.00;77.45;97566.31;5189722;28;20628;-55
2021/04/06 07:24:54;;;;;;;6.37;5.73;;;0.90;99.90;;;2.22;77.63;97570.63;5183000;28;20297;-56
2021/04/06 07:27:26;;;;;;;7.33;6.40;;;1.00;99.90;;;2.15;76.30;97563.31;5196459;28;20236;-56
2021/04/06 07:29:59;;;;;;;8.10;5.83;;;1.00;99.90;;;2.12;76.95;97566.47;5203838;28;20231;-56
2021/04/06 07:32:32;;;;;;;6.40;5.57;;;1.00;99.90;;;2.11;76.46;97564.69;5187682;28;20289;-53
2021/04/06 07:35:07;;;;;;;6.33;5.73;;;1.10;99.90;;;2.21;78.03;97562.19;5182907;28;20313;-57
2021/04/06 07:37:41;;;;;;;7.10;6.40;;;1.00;99.90;;;2.38;77.94;97560.19;5191461;28;20210;-53
2021/04/06 07:40:19;;;;;;;8.73;6.20;;;1.20;99.90;;;2.55;77.03;97561.56;5180076;28;20658;-56
2021/04/06 07:42:53;;;;;;;6.97;6.07;;;1.40;99.90;;;2.79;75.95;97562.72;5183084;28;20220;-55
2021/04/06 07:45:43;;;;;;;9.27;6.57;;;1.70;99.90;;;2.86;75.97;97562.44;5193701;28;20204;-56
2021/04/06 07:48:45;;;;;;;9.73;6.20;;;1.70;99.90;;;2.93;74.75;97555.50;5183326;28;20299;-56
2021/04/06 07:51:25;;;;;;;10.30;6.20;;;1.70;99.90;;;2.74;74.42;97556.41;5188167;28;20748;-54
2021/04/06 07:54:04;;;;;;;10.53;6.50;;;1.60;99.90;;;2.66;73.04;97563.34;5188765;28;20773;-54
2021/04/06 07:56:57;;;;;;;9.43;5.83;;;1.60;99.90;;;2.75;74.57;97554.03;5195978;28;20204;-53
2021/04/06 07:59:51;;;;;;;8.97;6.33;;;1.70;99.90;;;2.79;74.54;97557.69;5184146;28;20246;-58
2021/04/06 08:02:34;;;;;;;8.10;4.97;;;1.60;99.90;;;2.84;75.31;97558.94;5184083;28;20790;-55
2021/04/06 08:05:10;;;;;;;6.90;5.90;;;1.70;99.90;;;2.94;74.96;97564.84;5183319;28;20202;-56
2021/04/06 08:07:43;;;;;;;9.37;5.83;;;1.70;99.90;;;2.97;74.10;97556.63;5188817;28;20574;-55
2021/04/06 08:10:42;;;;;;;7.67;5.57;;;1.80;99.90;;;2.76;74.91;97558.31;5203160;28;20705;-53
2021/04/06 08:13:16;;;;;;;5.90;5.40;;;1.70;99.90;;;2.78;74.52;97566.03;5193135;28;20223;-56
2021/04/06 08:15:48;;;;;;;7.27;5.93;;;1.70;99.90;;;2.61;75.76;97564.63;5189349;28;20210;-57
2021/04/06 08:18:24;;;;;;;7.10;5.80;;;1.70;99.90;;;2.77;76.07;97561.69;5198887;28;20573;-54
2021/04/06 08:21:09;;;;;;;7.97;6.27;;;1.70;99.90;;;2.81;76.15;97564.63;5193968;28;20215;-55
2021/04/06 08:23:45;;;;;;;7.00;5.90;;;1.80;99.90;;;3.07;75.14;97558.28;5193200;28;20293;-57
2021/04/06 08:26:29;;;;;;;8.27;6.77;;;1.90;99.90;;;3.29;73.81;97560.88;5179562;28;20566;-55
2021/04/06 08:29:27;;;;;;;8.13;5.60;;;2.00;99.90;;;3.36;73.12;97568.19;5184490;28;20721;-56
2021/04/06 08:32:13;;;;;;;7.77;6.07;;;2.30;99.90;;;3.60;73.51;97565.06;5164362;28;20647;-57
2021/04/06 08:34:49;;;;;;;8.73;5.73;;;2.40;99.90;;;3.88;72.49;97563.81;5183973;28;20577;-56
2021/04/06 08:37:35;;;;;;;9.03;6.00;;;2.60;99.90;;;4.20;71.93;97566.28;5186782;28;20201;-56
2021/04/06 08:40:10;;;;;;;8.60;5.40;;;2.90;99.90;;;4.35;71.21;97562.41;5196465;28;20210;-56
2021/04/06 08:42:43;;;;;;;11.47;6.10;;;3.00;99.90;;;4.33;68.43;97563.94;5189612;28;20201;-56
2021/04/06 08:45:25;;;;;;;6.80;5.63;;;3.00;99.90;;;4.26;68.59;97566.75;5192769;28;20678;-57
2021/04/06 08:47:57;;;;;;;7.43;5.40;;;2.80;99.90;;;4.19;68.80;97567.06;5191804;28;20725;-56
2021/04/06 08:50:35;;;;;;;8.33;5.53;;;2.80;99.90;;;4.03;70.07;97572.56;5201982;28;20232;-56
2021/04/06 08:53:07;;;;;;;6.57;5.67;;;2.70;99.90;;;4.03;70.04;97565.91;5194218;28;20600;-56
2021/04/06 08:55:40;;;;;;;9.80;5.20;;;2.70;99.90;;;3.75;70.99;97569.53;5186455;28;20273;-55
2021/04/06 08:58:18;;;;;;;6.57;5.23;;;2.70;99.90;;;3.84;70.45;97575.34;5197330;28;20199;-54
2021/04/06 09:01:02;;;;;;;8.47;5.63;;;2.60;99.90;;;3.68;73.17;97582.47;5187626;28;20261;-56
2021/04/06 09:03:34;;;;;;;8.10;6.23;;;2.50;99.90;;;3.59;73.87;97575.94;5202977;28;20650;-60
2021/04/06 09:06:09;;;;;;;9.70;6.93;;;2.50;99.90;;;3.69;74.39;97575.03;5193465;23;20219;-56
2021/04/06 09:08:54;;;;;;;7.13;5.63;;;2.50;99.90;;;3.64;72.79;97570.38;5158715;28;20199;-59
2021/04/06 09:11:26;;;;;;;7.10;6.40;;;2.40;99.90;;;3.53;73.55;97567.00;5136867;28;20216;-57
2021/04/06 09:13:59;;;;;;;9.30;6.73;;;2.30;99.90;;;3.62;72.57;97572.78;5141799;28;20687;-58
2021/04/06 09:16:32;;;;;;;8.50;5.93;;;2.40;99.90;;;3.61;72.96;97576.06;5145595;28;20255;-55
2021/04/06 09:19:09;;;;;;;9.27;6.47;;;2.40;99.90;;;3.55;72.80;97568.88;5144028;28;20200;-56
2021/04/06 09:21:46;;;;;;;11.13;5.93;;;2.40;99.90;;;3.42;75.20;97568.66;5143796;28;20242;-56
2021/04/06 09:24:20;;;;;;;8.07;6.30;;;2.40;99.90;;;3.48;75.53;97569.16;5144700;28;20278;-58
2021/04/06 09:26:57;;;;;;;7.80;7.00;;;2.40;99.90;;;3.53;75.08;97572.94;5144088;28;20726;-57
2021/04/06 09:29:35;;;;;;;47.13;39.03;;;2.50;99.90;;;3.57;77.13;97574.91;5141867;28;20287;-58
2021/04/06 09:32:10;;;;;;;11.57;8.23;;;2.60;99.90;;;3.67;77.57;97570.63;5144547;28;20207;-58
2021/04/06 09:34:44;;;;;;;8.97;7.27;;;2.60;99.90;;;3.91;77.50;97571.63;5144458;28;20282;-57
2021/04/06 09:37:20;;;;;;;9.10;7.80;;;2.50;99.90;;;3.73;77.10;97574.50;5144206;28;20219;-58
2021/04/06 09:39:54;;;;;;;10.30;6.87;;;2.60;99.90;;;3.75;77.76;97572.06;5144271;28;20202;-57
2021/04/06 09:42:27;;;;;;;7.40;6.13;;;2.70;99.90;;;3.87;77.32;97575.59;5130967;28;20210;-58
2021/04/06 09:45:04;;;;;;;7.17;6.57;;;2.70;99.90;;;3.72;78.03;97571.84;5143427;28;20192;-57
2021/04/06 09:47:37;;;;;;;8.77;6.50;;;2.70;99.90;;;3.89;77.84;97573.16;5138425;28;20759;-56
2021/04/06 09:50:11;;;;;;;8.97;6.20;;;2.80;99.90;;;4.16;76.67;97564.31;5143441;28;20203;-58
2021/04/06 09:52:43;;;;;;;9.30;6.93;;;2.90;99.90;;;4.36;76.80;97569.22;5143444;28;20669;-53
2021/04/06 09:55:16;;;;;;;9.07;7.27;;;3.30;99.90;;;4.49;78.11;97571.03;5143187;28;20220;-56
2021/04/06 09:57:54;;;;;;;9.80;6.67;;;3.50;99.90;;;4.73;76.82;97562.75;5143880;28;20239;-57
2021/04/06 10:00:29;;;;;;;8.57;6.47;;;3.70;99.90;;;4.72;74.97;97558.47;5140688;28;20291;-55
2021/04/06 10:03:05;;;;;;;7.80;6.00;;;3.70;99.90;;;4.58;76.30;97551.50;5142742;28;20246;-55
2021/04/06 10:05:42;;;;;;;8.43;6.20;;;3.60;99.90;;;4.50;76.59;97550.91;5143523;28;20342;-54
2021/04/06 10:08:27;;;;;;;9.37;6.80;;;3.50;99.90;;;4.48;76.85;97549.03;5133128;28;20227;-57
2021/04/06 10:11:00;;;;;;;10.00;6.33;;;3.40;99.90;;;4.55;76.21;97542.78;5133341;28;20210;-56
2021/04/06 10:13:35;;;;;;;8.37;6.73;;;3.30;99.90;;;4.63;75.89;97544.22;5142702;28;20231;-59
2021/04/06 10:16:10;;;;;;;9.17;6.87;;;3.50;99.90;;;4.70;77.25;97538.88;5143988;28;20581;-59
2021/04/06 10:18:47;;;;;;;11.10;6.67;;;3.60;99.90;;;4.88;75.38;97531.75;5143213;28;20199;-59
2021/04/06 10:21:24;;;;;;;9.40;6.20;;;3.70;99.90;;;4.84;75.38;97527.25;5145037;28;20287;-59
2021/04/06 10:24:05;;;;;;;7.27;6.00;;;3.80;99.90;;;4.95;75.61;97529.78;5143389;28;20196;-58
2021/04/06 10:26:37;;;;;;;9.43;6.40;;;3.90;99.90;;;5.09;76.07;97517.22;5142708;28;20299;-56
2021/04/06 10:29:12;;;;;;;8.53;6.20;;;4.10;99.90;;;5.41;77.31;97520.44;5146860;28;20196;-57
2021/04/06 10:31:50;;;;;;;10.07;6.10;;;4.50;99.90;;;5.53;71.43;97517.00;5145402;28;20199;-58
2021/04/06 10:34:22;;;;;;;8.13;5.40;;;4.70;99.90;;;5.54;73.13;97513.69;5142686;28;20218;-58
2021/04/06 10:37:03;;;;;;;7.07;5.60;;;4.60;99.90;;;5.54;73.50;97504.41;5142574;28;20302;-59
2021/04/06 10:39:41;;;;;;;6.10;5.23;;;4.60;99.90;;;5.58;72.51;97508.03;5143127;28;20317;-56
2021/04/06 10:42:16;;;;;;;9.17;5.70;;;4.70;99.90;;;5.76;74.74;97509.34;5125081;28;20667;-57
2021/04/06 10:44:49;;;;;;;7.43;5.10;;;4.90;99.90;;;5.93;72.32;97509.66;5131367;28;20227;-58
2021/04/06 10:47:28;;;;;;;6.70;5.27;;;5.00;99.90;;;5.99;71.61;97510.09;5141328;28;20267;-58
2021/04/06 10:50:00;;;;;;;8.60;5.73;;;4.90;99.90;;;6.01;73.96;97506.00;5141795;28;20258;-58
2021/04/06 10:52:34;;;;;;;7.67;5.47;;;5.10;99.90;;;6.28;73.90;97495.19;5142452;28;20291;-58
2021/04/06 10:55:09;;;;;;;6.73;5.60;;;5.20;99.90;;;6.37;72.16;97499.13;5142451;28;20310;-56
2021/04/06 10:57:41;;;;;;;7.07;5.30;;;5.40;99.90;;;6.42;70.74;97493.59;5142034;28;20212;-58
2021/04/06 11:00:20;;;;;;;6.27;5.57;;;5.20;99.90;;;6.29;70.93;97486.78;5141918;28;20302;-57
2021/04/06 11:03:15;;;;;;;6.83;5.03;;;5.20;99.90;;;6.23;68.73;97490.56;5142952;28;20914;-55